createdAt,value
2022-12-19T00:01:07.404Z,47.08
2022-12-19T00:11:10.397Z,46.47
2022-12-19T00:21:16.869Z,49.53
2022-12-19T00:31:20.005Z,54.90
2022-12-19T00:41:33.550Z,52.57
2022-12-19T00:51:37.642Z,49.93
2022-12-19T01:12:07.413Z,47.80
2022-12-19T01:22:09.259Z,50.42
2022-12-19T01:32:14.420Z,46.92
2022-12-19T01:42:23.451Z,51.72
2022-12-19T01:52:25.943Z,46.42
2022-12-19T02:02:36.318Z,49.83
2022-12-19T02:12:44.537Z,48.90
2022-12-19T02:22:56.295Z,51.95
2022-12-19T02:33:05.881Z,50.90
2022-12-19T02:43:13.240Z,49.85
2022-12-19T02:53:23.975Z,52.75
2022-12-19T03:04:14.615Z,48.28
2022-12-19T03:14:20.061Z,45.75
2022-12-19T03:24:25.730Z,46.92
2022-12-19T03:34:32.898Z,46.90
2022-12-19T03:44:39.493Z,46.17
2022-12-19T03:54:48.575Z,43.95
2022-12-19T04:05:02.474Z,47.35
2022-12-19T04:15:05.550Z,44.53
2022-12-19T04:25:13.729Z,43.50
2022-12-19T04:35:17.419Z,47.15
2022-12-19T04:45:22.724Z,44.42
2022-12-19T04:55:28.767Z,43.67
2022-12-19T05:05:30.509Z,46.28
2022-12-19T05:15:33.594Z,46.75
2022-12-19T05:25:42.243Z,45.83
2022-12-19T05:35:44.970Z,44.63
2022-12-19T05:45:48.958Z,45.85
2022-12-19T05:56:12.008Z,46.15
2022-12-19T06:06:17.664Z,44.88
2022-12-19T06:16:21.490Z,44.20
2022-12-19T06:26:25.143Z,44.90
2022-12-19T06:37:31.694Z,44.27
2022-12-19T06:47:33.290Z,40.13
2022-12-19T06:57:37.423Z,37.47
2022-12-19T07:07:40.711Z,38.42
2022-12-19T07:17:43.672Z,32.70
2022-12-19T07:27:46.477Z,32.22
2022-12-19T07:37:48.066Z,28.77
2022-12-19T07:48:07.293Z,29.33
2022-12-19T07:58:16.820Z,29.35
2022-12-19T08:08:18.695Z,23.23
2022-12-19T08:18:20.583Z,19.83
2022-12-19T08:28:25.340Z,21.10
2022-12-19T08:38:27.024Z,21.83
2022-12-19T08:48:29.159Z,22.23
2022-12-19T08:58:31.318Z,23.40
2022-12-19T09:08:34.121Z,22.48
2022-12-19T09:18:42.637Z,20.60
2022-12-19T09:28:48.046Z,20.58
2022-12-19T09:38:57.526Z,21.67
2022-12-19T09:49:02.292Z,19.10
2022-12-19T09:59:22.528Z,19.88
2022-12-19T10:11:34.784Z,20.10
2022-12-19T10:20:19.328Z,20.95
2022-12-19T10:30:23.094Z,20.92
2022-12-19T10:50:41.301Z,20.83
2022-12-19T11:01:04.402Z,19.40
2022-12-19T11:13:10.331Z,21.47
2022-12-19T11:29:44.851Z,22.00
2022-12-19T11:32:36.678Z,20.50
2022-12-19T11:42:37.788Z,20.00
2022-12-19T11:53:16.538Z,20.45
2022-12-19T12:03:58.324Z,20.08
2022-12-19T12:19:33.813Z,20.50
2022-12-19T12:31:41.875Z,19.33
2022-12-19T12:45:55.757Z,19.85
2022-12-19T12:56:00.897Z,21.23
2022-12-19T13:06:07.575Z,20.67
2022-12-19T13:16:43.707Z,20.98
2022-12-19T13:26:51.340Z,19.00
2022-12-19T13:40:02.343Z,21.73
2022-12-19T13:47:29.958Z,21.92
2022-12-19T13:57:38.740Z,20.98
2022-12-19T14:07:42.374Z,21.73
2022-12-19T14:17:49.329Z,25.07
2022-12-19T14:28:24.462Z,22.92
2022-12-19T14:39:20.436Z,25.20
2022-12-19T14:53:52.729Z,24.13
2022-12-19T14:59:42.349Z,23.42
2022-12-19T15:11:06.715Z,23.43
2022-12-19T15:20:16.434Z,22.40
2022-12-19T15:30:21.511Z,22.85
2022-12-19T15:40:33.067Z,25.27
2022-12-19T15:50:39.832Z,23.38
2022-12-19T16:00:54.682Z,25.77
2022-12-19T16:11:01.669Z,25.27
2022-12-19T16:21:33.754Z,25.50
2022-12-19T16:31:46.762Z,25.40
2022-12-19T16:41:48.678Z,26.00
2022-12-19T16:51:52.110Z,24.40
2022-12-19T17:01:54.272Z,27.17
2022-12-19T17:12:01.412Z,25.65
2022-12-19T17:22:13.259Z,26.35
2022-12-19T17:32:23.699Z,25.80
2022-12-19T17:42:29.761Z,24.95
2022-12-19T17:52:38.703Z,25.70
2022-12-19T18:02:41.626Z,22.25
2022-12-19T18:12:55.593Z,23.05
2022-12-19T18:22:57.863Z,26.03
2022-12-19T18:33:02.813Z,25.48
2022-12-19T18:43:06.769Z,25.02
2022-12-19T18:53:13.439Z,26.05
2022-12-19T19:03:18.352Z,26.25
2022-12-19T19:13:21.739Z,27.25
2022-12-19T19:23:29.675Z,26.63
2022-12-19T19:33:39.858Z,27.45
2022-12-19T19:43:42.145Z,28.08
2022-12-19T19:53:47.988Z,27.95
2022-12-19T20:03:50.055Z,29.00
2022-12-19T20:13:52.297Z,28.98
2022-12-19T20:23:55.931Z,30.08
2022-12-19T20:33:58.829Z,29.37
2022-12-19T20:44:01.493Z,31.23
2022-12-19T20:54:11.706Z,30.05
2022-12-19T21:04:13.619Z,30.58
2022-12-19T21:14:16.987Z,31.73
2022-12-19T21:24:18.877Z,31.07
2022-12-19T21:34:23.988Z,30.00
2022-12-19T21:44:26.393Z,29.33
2022-12-19T21:54:39.484Z,31.65
2022-12-19T22:04:41.416Z,29.98
2022-12-19T22:14:44.933Z,30.73
2022-12-19T22:24:46.794Z,32.43
2022-12-19T22:34:49.301Z,33.17
2022-12-19T22:44:53.106Z,32.97
2022-12-19T22:55:02.136Z,32.08
2022-12-19T23:05:09.382Z,33.75
2022-12-19T23:15:11.314Z,33.85
2022-12-19T23:25:14.186Z,35.13
2022-12-19T23:35:16.138Z,35.55
2022-12-19T23:45:31.157Z,33.47
2022-12-19T23:55:33.017Z,32.20
